aviador You're here:

PABA Decoded Metar

BARTER ISLAND in AK, USA
Report Time2018-01-17 09:05:00
UTC Time2018-01-17 09:14:11
Flight Rules lifr LIFR
Wind060° at 13 kt
W.Decomp.*RWY 07: 10.4 kt HW 7.8 kt LCW
W.Rank060° ranks 11
Current wind is above 060° avg. (9.6)
Visibility9999 m
Phenomena:Light Snow
Clouds:Broken 004 Hf
Overcast 011 Hf
Expected CloudBase > 400 ft AGL from Temp-Dew spread
Ceiling400 ft
Temp-13°C (ISA -28)
Dew Point-14°C (92% RH)
AAT-21.0°C
QNH1005 hPa
Density Alt-3,212 ft
Elevation7 ft
Report Wrong Elevation
Raw Report
SPECI PABA 170905Z AUTO 06013KT 9SM -SN BKN004 OVC011 M13/M14 A2967
RMK AO2 P0000 FZRANO TSNO=

Extra information for PABA:More info

Airport Information Weather charts Add Link Nearby Venues Social comments

AIRNAV info for PABA